首页
METAR-TAF:

METAR-TAF

机场 :

紐卡索機場

纽卡斯尔, 澳大利亚

纬度: 32-47-42S, 经度: 151-50-04E, 海拔: 9米

当前天气观测

该预报发布于17分钟前的12:00 UTC
风速5节,风向
温度 10°C
湿度 82%
气压 1025 hPa
能见度10公里或以上

METAR: YWLM 231200Z AUTO 36005KT 9999 // NCD 10/07 Q1025 RF00.0/000.0

时间: 22:17 (12:17 UTC)

预报

该预报发布于51分钟前的11:26 UTC
预报有效从23日的 12点(UTC)到 24日的 12点(UTC)
风速8节,风向西转西北
能见度10公里或以上
1500米以下无云,无积雨云
从 24日的 0000点(UTC)
风速12节,风向西转西北
能见度10公里或以上
1500米以下无云,无积雨云
从 24日的 0600点(UTC)
风速8节,风向
能见度10公里或以上
1500米以下无云,无积雨云

TAF: YWLM 231126Z 2312/2412 30008KT CAVOK FM240000 30012KT CAVOK FM240600 08008KT CAVOK

超过4000个机场的气象观测和天气预报(METAR&TAF报告)。

可查询的气象台以黄色和红色小点在地图上表示。

将鼠标移到小点上方,可查看气象台名称。

然后点击查看天气观测和预报。

如需切换地图:点击带黑十字的绿色按钮放大地图;点击带横线的绿色按钮缩小地图;或者点击绿色箭头查看邻近地区的地图。


METAR-TAF: